createdAt,value
2023-04-13T00:01:52.160Z,98.13
2023-04-13T00:11:55.557Z,98.77
2023-04-13T00:22:00.873Z,97.50
2023-04-13T00:32:04.469Z,91.03
2023-04-13T00:42:09.416Z,97.43
2023-04-13T00:52:14.119Z,102.47
2023-04-13T01:02:19.108Z,99.47
2023-04-13T01:12:30.785Z,100.70
2023-04-13T01:22:41.826Z,99.70
2023-04-13T01:32:46.942Z,98.33
2023-04-13T01:42:50.873Z,97.83
2023-04-13T01:53:08.106Z,96.20
2023-04-13T02:03:15.608Z,100.20
2023-04-13T02:13:21.055Z,92.00
2023-04-13T02:23:24.676Z,94.67
2023-04-13T02:33:31.498Z,96.03
2023-04-13T02:43:35.710Z,93.73
2023-04-13T02:53:41.370Z,94.93
2023-04-13T03:03:45.712Z,94.40
2023-04-13T03:13:54.279Z,91.03
2023-04-13T03:23:59.498Z,96.57
2023-04-13T03:34:04.763Z,93.57
2023-04-13T03:44:10.084Z,93.73
2023-04-13T03:54:16.770Z,93.77
2023-04-13T04:04:21.676Z,97.17
2023-04-13T04:14:29.623Z,94.43
2023-04-13T04:24:42.506Z,100.60
2023-04-13T04:34:52.783Z,97.00
2023-04-13T04:44:58.672Z,96.73
2023-04-13T04:55:07.455Z,98.90
2023-04-13T05:05:13.061Z,101.80
2023-04-13T05:15:18.074Z,104.23
2023-04-13T05:25:21.868Z,110.57
2023-04-13T05:35:28.119Z,107.97
2023-04-13T05:45:33.185Z,113.40
2023-04-13T05:55:47.575Z,116.60
2023-04-13T06:05:54.786Z,119.40
2023-04-13T06:16:00.432Z,107.97
2023-04-13T06:26:05.728Z,115.63
2023-04-13T06:36:25.652Z,122.10
2023-04-13T06:46:31.531Z,114.67
2023-04-13T06:56:43.380Z,118.93
2023-04-13T07:06:47.908Z,117.13
2023-04-13T07:16:53.422Z,116.20
2023-04-13T07:26:59.028Z,115.37
2023-04-13T07:37:03.890Z,114.10
2023-04-13T07:47:08.123Z,114.30
2023-04-13T07:57:13.240Z,119.33
2023-04-13T08:07:23.217Z,124.77
2023-04-13T08:17:28.221Z,122.83
2023-04-13T08:27:32.750Z,109.67
2023-04-13T08:37:39.577Z,112.07
2023-04-13T08:47:44.336Z,114.13
2023-04-13T08:57:51.880Z,114.63
2023-04-13T09:07:58.888Z,108.90
2023-04-13T09:18:12.709Z,118.30
2023-04-13T09:28:21.976Z,115.53
2023-04-13T09:38:33.113Z,120.07
2023-04-13T09:48:36.583Z,129.68
2023-04-13T09:58:46.325Z,127.72
2023-04-13T10:08:49.854Z,129.77
2023-04-13T10:19:02.049Z,126.75
2023-04-13T10:29:06.666Z,120.85
2023-04-13T10:39:11.908Z,123.40
2023-04-13T10:49:15.421Z,121.18
2023-04-13T10:59:21.181Z,132.07
2023-04-13T11:09:24.653Z,137.00
2023-04-13T11:19:29.460Z,139.80
2023-04-13T11:29:33.204Z,142.55
2023-04-13T11:39:40.040Z,148.07
2023-04-13T11:49:47.942Z,150.63
2023-04-13T11:59:54.347Z,145.38
2023-04-13T12:09:59.571Z,153.27
2023-04-13T12:20:16.301Z,146.82
2023-04-13T12:30:21.761Z,153.70
2023-04-13T12:40:26.564Z,156.75
2023-04-13T12:50:31.319Z,151.20
2023-04-13T13:00:37.325Z,142.98
2023-04-13T13:10:43.117Z,140.50
2023-04-13T13:20:49.426Z,127.53
2023-04-13T13:30:52.804Z,132.00
2023-04-13T13:40:57.636Z,120.80
2023-04-13T13:51:02.094Z,118.40
2023-04-13T14:01:09.003Z,110.23
2023-04-13T14:11:12.751Z,105.73
2023-04-13T14:21:21.387Z,121.70
2023-04-13T14:31:24.821Z,106.53
2023-04-13T14:41:29.657Z,106.93
2023-04-13T14:51:33.654Z,119.00
2023-04-13T15:01:38.377Z,102.67
2023-04-13T15:11:41.972Z,104.80
2023-04-13T15:21:46.721Z,118.87
2023-04-13T15:31:51.866Z,106.00
2023-04-13T15:41:57.886Z,103.33
2023-04-13T15:52:01.348Z,103.33
2023-04-13T16:02:06.257Z,96.63
2023-04-13T16:12:10.974Z,101.00
2023-04-13T16:22:16.388Z,104.13
2023-04-13T16:32:19.900Z,105.67
2023-04-13T16:42:24.731Z,113.23
2023-04-13T16:52:28.174Z,117.17
2023-04-13T17:02:33.273Z,126.70
2023-04-13T17:12:37.370Z,121.07
2023-04-13T17:22:42.461Z,115.13
2023-04-13T17:32:46.466Z,131.77
2023-04-13T17:42:51.639Z,100.00
2023-04-13T17:52:55.067Z,105.87
2023-04-13T18:03:01.611Z,105.63
2023-04-13T18:13:06.606Z,107.80
2023-04-13T18:23:11.470Z,106.47
2023-04-13T18:33:14.998Z,111.30
2023-04-13T18:43:20.010Z,111.87
2023-04-13T18:53:23.413Z,114.77
2023-04-13T19:03:28.430Z,121.80
2023-04-13T19:13:32.187Z,114.90
2023-04-13T19:23:39.638Z,109.53
2023-04-13T19:33:46.194Z,117.93
2023-04-13T19:43:52.337Z,113.87
2023-04-13T19:53:57.657Z,111.00
2023-04-13T20:04:05.164Z,117.90
2023-04-13T20:14:09.785Z,119.67
2023-04-13T20:24:14.683Z,117.50
2023-04-13T20:34:20.246Z,113.87
2023-04-13T20:44:25.831Z,116.93
2023-04-13T20:54:29.526Z,109.03
2023-04-13T21:04:34.411Z,110.67
2023-04-13T21:14:37.759Z,109.37
2023-04-13T21:24:42.585Z,109.83
2023-04-13T21:34:46.267Z,109.70
2023-04-13T21:44:51.092Z,109.17
2023-04-13T21:54:54.568Z,112.20
2023-04-13T22:04:59.305Z,112.43
2023-04-13T22:15:02.828Z,109.93
2023-04-13T22:25:08.279Z,113.40
2023-04-13T22:35:12.239Z,113.23
2023-04-13T22:45:16.959Z,119.03
2023-04-13T22:55:21.198Z,119.23
2023-04-13T23:05:26.018Z,114.00
2023-04-13T23:15:29.451Z,118.47
2023-04-13T23:25:34.171Z,114.40
2023-04-13T23:35:37.545Z,114.87
2023-04-13T23:45:42.740Z,114.40
2023-04-13T23:55:46.210Z,118.33
